ADDS TAF Board (Experimental) INFO Settings
IDs: Format: Expanded Condensed

KPDX - Portland Intl Arpt, OR, US

Issued at 1459 UTC 26 May 2015
Updated at: 1535 UTC 26 May 2015
Time1453Z 26/16Z 26/17Z 26/18Z 26/19Z 26/20Z 26/21Z 26/22Z 26/23Z 27/00Z 27/01Z 27/02Z 27/03Z 27/04Z
Type OBS PRVL PRVL PRVL PRVL PRVL PRVL PRVL PRVL PRVL PRVL PRVL PRVL PRVL
VIS 10 >6 >6 >6 >6 >6 >6 >6 >6 >6 >6 >6 >6 >6
CIG 39 35 35 35 35 35 -- -- -- -- -- -- -- --
Cover OVC OVC OVC OVC OVC BKN SCT SCT SCT SCT SCT SCT SCT SCT
FltCat VFR VFR VFR VFR VFR VFR VFR VFR VFR VFR VFR VFR VFR VFR
WX -- -- -- -- -- -- -- -- -- -- -- -- -- --
WDir 320 330 330 330 330 340 340 340 340 340 340 320 320 320
WSpd 6 4 4 4 4 7 7 7 7 7 7 7 7 7
WGst -- -- -- -- -- -- -- -- -- -- -- -- -- --
R03/21
XWnd 6 4 4 4 4 6 6 6 6 6 6 7 7 7
HWnd 1 1 1 1 1 3 3 3 3 3 3 1 1 1
R10/28
XWnd 2 2 2 2 2 5 5 5 5 5 5 3 3 3
HWnd -6 -3 -3 -3 -3 -5 -5 -5 -5 -5 -5 -7 -7 -7

NOTE: TEMPO conditions in [brackets]. Keep in mind TEMPO conditions might be better (lower impact) than prevailing conditions.

Raw TAF
KPDX 261459Z 2615/2712 33004KT P6SM FEW018 OVC035
  FM262000 34007KT P6SM BKN035
  FM262100 34007KT P6SM SCT035
  FM270200 32007KT P6SM SCT040
  FM270700 31005KT P6SM BKN035


Raw METAR
KPDX 261453Z 32006KT 10SM FEW017 OVC039 13/09 A3006 RMK AO2 SLP177 T01280089 51004
KPDX 261353Z 32007KT 10SM SCT027 OVC039 12/09 A3005 RMK AO2 SLP176 T01220089
KPDX 261253Z 33005KT 10SM SCT028 OVC037 12/09 A3005 RMK AO2 SLP175 T01220089
KPDX 261240Z 32005KT 10SM SCT028 OVC039 12/09 A3005 RMK AO2 T01220089

METAR Board
Radar Display
Forecast Discussion

TAF Board Legend

Potential Impact
Threat None Slight Moderate High
Visibility (sm) ≥5.1 5.1>X≥3 3>X≥1 <1
Ceiling (100 ft) ≥30.1 30.1>X≥10 10>X≥5 <5
Wind Speed (kt) <10 10≤X<20 20≤X<30 ≥30
Wind Gust (kt) <15 15≤X<25 25≤X<35 ≥35
Weather No Wx Reported VCTS,-TS,-FZRA,SN TS,FZRA +TS,+FZRA,+SN